sensor_id;sensor_type;location;lat;lon;timestamp;P1;durP1;ratioP1;P2;durP2;ratioP2
12681;SDS011;6405;59.208;18.216;2023-12-20T00:00:38;11.73;;;2.90;;
12681;SDS011;6405;59.208;18.216;2023-12-20T00:03:04;22.77;;;2.73;;
12681;SDS011;6405;59.208;18.216;2023-12-20T00:05:30;18.47;;;2.83;;
12681;SDS011;6405;59.208;18.216;2023-12-20T00:07:59;8.60;;;2.10;;
12681;SDS011;6405;59.208;18.216;2023-12-20T00:10:25;16.17;;;2.10;;
12681;SDS011;6405;59.208;18.216;2023-12-20T00:12:50;14.50;;;2.83;;
12681;SDS011;6405;59.208;18.216;2023-12-20T00:15:16;20.43;;;2.40;;
12681;SDS011;6405;59.208;18.216;2023-12-20T00:17:42;10.83;;;1.83;;
12681;SDS011;6405;59.208;18.216;2023-12-20T00:20:08;20.20;;;3.03;;
12681;SDS011;6405;59.208;18.216;2023-12-20T00:22:34;29.87;;;3.50;;
12681;SDS011;6405;59.208;18.216;2023-12-20T00:25:00;10.03;;;2.53;;
12681;SDS011;6405;59.208;18.216;2023-12-20T00:27:25;14.30;;;2.87;;
12681;SDS011;6405;59.208;18.216;2023-12-20T00:29:51;19.63;;;2.63;;
12681;SDS011;6405;59.208;18.216;2023-12-20T00:32:17;18.67;;;2.87;;
12681;SDS011;6405;59.208;18.216;2023-12-20T00:34:43;18.50;;;2.17;;
12681;SDS011;6405;59.208;18.216;2023-12-20T00:37:09;6.97;;;2.40;;
12681;SDS011;6405;59.208;18.216;2023-12-20T00:39:34;14.30;;;2.77;;
12681;SDS011;6405;59.208;18.216;2023-12-20T00:42:00;20.73;;;2.87;;
12681;SDS011;6405;59.208;18.216;2023-12-20T00:44:26;9.40;;;2.50;;
12681;SDS011;6405;59.208;18.216;2023-12-20T00:46:51;9.43;;;2.57;;
12681;SDS011;6405;59.208;18.216;2023-12-20T00:49:17;13.90;;;2.00;;
12681;SDS011;6405;59.208;18.216;2023-12-20T00:51:43;15.40;;;2.10;;
12681;SDS011;6405;59.208;18.216;2023-12-20T00:54:08;12.00;;;1.90;;
12681;SDS011;6405;59.208;18.216;2023-12-20T00:56:34;16.43;;;2.17;;
12681;SDS011;6405;59.208;18.216;2023-12-20T00:59:00;11.90;;;1.90;;
12681;SDS011;6405;59.208;18.216;2023-12-20T01:01:26;14.20;;;2.23;;
12681;SDS011;6405;59.208;18.216;2023-12-20T01:03:52;5.87;;;1.77;;
12681;SDS011;6405;59.208;18.216;2023-12-20T01:06:18;12.47;;;2.37;;
12681;SDS011;6405;59.208;18.216;2023-12-20T01:08:44;19.43;;;2.73;;
12681;SDS011;6405;59.208;18.216;2023-12-20T01:11:09;10.77;;;2.00;;
12681;SDS011;6405;59.208;18.216;2023-12-20T01:13:35;12.10;;;2.93;;
12681;SDS011;6405;59.208;18.216;2023-12-20T01:16:01;9.33;;;2.07;;
12681;SDS011;6405;59.208;18.216;2023-12-20T01:18:27;14.63;;;2.50;;
12681;SDS011;6405;59.208;18.216;2023-12-20T01:20:53;18.47;;;2.33;;
12681;SDS011;6405;59.208;18.216;2023-12-20T01:23:19;11.57;;;2.30;;
12681;SDS011;6405;59.208;18.216;2023-12-20T01:25:45;14.23;;;2.67;;
12681;SDS011;6405;59.208;18.216;2023-12-20T01:28:10;13.33;;;2.53;;
12681;SDS011;6405;59.208;18.216;2023-12-20T01:30:37;14.87;;;2.40;;
12681;SDS011;6405;59.208;18.216;2023-12-20T01:33:03;12.57;;;2.27;;
12681;SDS011;6405;59.208;18.216;2023-12-20T01:35:29;17.67;;;2.30;;
12681;SDS011;6405;59.208;18.216;2023-12-20T01:37:55;13.13;;;2.47;;
12681;SDS011;6405;59.208;18.216;2023-12-20T01:40:22;12.13;;;2.17;;
12681;SDS011;6405;59.208;18.216;2023-12-20T01:42:57;15.93;;;2.30;;
12681;SDS011;6405;59.208;18.216;2023-12-20T01:45:33;19.50;;;2.73;;
12681;SDS011;6405;59.208;18.216;2023-12-20T01:47:59;14.87;;;2.83;;
12681;SDS011;6405;59.208;18.216;2023-12-20T01:50:27;21.07;;;2.53;;
12681;SDS011;6405;59.208;18.216;2023-12-20T01:52:53;15.67;;;2.30;;
12681;SDS011;6405;59.208;18.216;2023-12-20T01:55:23;14.43;;;2.50;;
12681;SDS011;6405;59.208;18.216;2023-12-20T01:57:49;17.00;;;3.20;;
12681;SDS011;6405;59.208;18.216;2023-12-20T02:00:16;20.23;;;3.13;;
12681;SDS011;6405;59.208;18.216;2023-12-20T02:02:43;15.33;;;4.23;;
12681;SDS011;6405;59.208;18.216;2023-12-20T02:05:10;18.13;;;3.40;;
12681;SDS011;6405;59.208;18.216;2023-12-20T02:07:37;17.10;;;3.80;;
12681;SDS011;6405;59.208;18.216;2023-12-20T02:10:02;15.60;;;3.67;;
12681;SDS011;6405;59.208;18.216;2023-12-20T02:12:32;23.77;;;3.43;;
12681;SDS011;6405;59.208;18.216;2023-12-20T02:14:57;15.10;;;3.20;;
12681;SDS011;6405;59.208;18.216;2023-12-20T02:17:23;13.47;;;3.20;;
12681;SDS011;6405;59.208;18.216;2023-12-20T02:19:49;12.07;;;3.33;;
12681;SDS011;6405;59.208;18.216;2023-12-20T02:22:15;17.23;;;3.27;;
12681;SDS011;6405;59.208;18.216;2023-12-20T02:24:40;20.63;;;3.37;;
12681;SDS011;6405;59.208;18.216;2023-12-20T02:27:07;13.53;;;2.93;;
12681;SDS011;6405;59.208;18.216;2023-12-20T02:29:33;16.60;;;3.03;;
12681;SDS011;6405;59.208;18.216;2023-12-20T02:31:59;13.53;;;3.53;;
12681;SDS011;6405;59.208;18.216;2023-12-20T02:34:25;17.77;;;3.37;;
12681;SDS011;6405;59.208;18.216;2023-12-20T02:36:51;18.00;;;3.37;;
12681;SDS011;6405;59.208;18.216;2023-12-20T02:39:17;11.83;;;3.33;;
12681;SDS011;6405;59.208;18.216;2023-12-20T02:41:44;10.77;;;2.87;;
12681;SDS011;6405;59.208;18.216;2023-12-20T02:44:10;12.60;;;3.33;;
12681;SDS011;6405;59.208;18.216;2023-12-20T02:46:35;18.20;;;3.50;;
12681;SDS011;6405;59.208;18.216;2023-12-20T02:49:01;14.73;;;3.33;;
12681;SDS011;6405;59.208;18.216;2023-12-20T02:51:27;12.53;;;3.57;;
12681;SDS011;6405;59.208;18.216;2023-12-20T02:53:52;10.60;;;3.43;;
12681;SDS011;6405;59.208;18.216;2023-12-20T02:56:18;16.93;;;3.30;;
12681;SDS011;6405;59.208;18.216;2023-12-20T02:58:44;23.37;;;3.50;;
12681;SDS011;6405;59.208;18.216;2023-12-20T03:01:10;15.43;;;3.53;;
12681;SDS011;6405;59.208;18.216;2023-12-20T03:03:35;13.13;;;2.77;;
12681;SDS011;6405;59.208;18.216;2023-12-20T03:06:01;14.77;;;3.23;;
12681;SDS011;6405;59.208;18.216;2023-12-20T03:08:27;8.63;;;3.07;;
12681;SDS011;6405;59.208;18.216;2023-12-20T03:10:52;18.57;;;3.53;;
12681;SDS011;6405;59.208;18.216;2023-12-20T03:13:18;15.00;;;3.47;;
12681;SDS011;6405;59.208;18.216;2023-12-20T03:15:45;15.33;;;3.07;;
12681;SDS011;6405;59.208;18.216;2023-12-20T03:18:11;17.47;;;3.17;;
12681;SDS011;6405;59.208;18.216;2023-12-20T03:20:36;19.27;;;3.40;;
12681;SDS011;6405;59.208;18.216;2023-12-20T03:23:03;16.27;;;2.80;;
12681;SDS011;6405;59.208;18.216;2023-12-20T03:25:29;14.03;;;2.67;;
12681;SDS011;6405;59.208;18.216;2023-12-20T03:27:55;12.03;;;2.70;;
12681;SDS011;6405;59.208;18.216;2023-12-20T03:30:20;22.57;;;3.67;;
12681;SDS011;6405;59.208;18.216;2023-12-20T03:32:46;12.17;;;3.03;;
12681;SDS011;6405;59.208;18.216;2023-12-20T03:35:12;12.13;;;2.80;;
12681;SDS011;6405;59.208;18.216;2023-12-20T03:37:38;10.97;;;2.57;;
12681;SDS011;6405;59.208;18.216;2023-12-20T03:40:04;18.33;;;2.37;;
12681;SDS011;6405;59.208;18.216;2023-12-20T03:42:30;11.83;;;2.63;;
12681;SDS011;6405;59.208;18.216;2023-12-20T03:44:56;9.90;;;2.73;;
12681;SDS011;6405;59.208;18.216;2023-12-20T03:47:21;13.47;;;2.20;;
12681;SDS011;6405;59.208;18.216;2023-12-20T03:49:47;9.67;;;2.20;;
12681;SDS011;6405;59.208;18.216;2023-12-20T03:52:13;10.37;;;2.83;;
12681;SDS011;6405;59.208;18.216;2023-12-20T03:54:39;11.60;;;2.20;;
12681;SDS011;6405;59.208;18.216;2023-12-20T03:57:06;15.13;;;3.33;;
12681;SDS011;6405;59.208;18.216;2023-12-20T03:59:35;7.13;;;1.70;;
12681;SDS011;6405;59.208;18.216;2023-12-20T04:02:02;17.83;;;2.53;;
12681;SDS011;6405;59.208;18.216;2023-12-20T04:04:28;8.97;;;2.70;;
12681;SDS011;6405;59.208;18.216;2023-12-20T04:06:53;12.67;;;2.50;;
12681;SDS011;6405;59.208;18.216;2023-12-20T04:09:19;12.47;;;2.73;;
12681;SDS011;6405;59.208;18.216;2023-12-20T04:11:45;9.43;;;2.03;;
12681;SDS011;6405;59.208;18.216;2023-12-20T04:14:10;12.67;;;2.33;;
12681;SDS011;6405;59.208;18.216;2023-12-20T04:16:36;11.07;;;3.00;;
12681;SDS011;6405;59.208;18.216;2023-12-20T04:19:02;8.03;;;2.30;;
12681;SDS011;6405;59.208;18.216;2023-12-20T04:21:28;19.37;;;3.17;;
12681;SDS011;6405;59.208;18.216;2023-12-20T04:23:53;8.00;;;2.17;;
12681;SDS011;6405;59.208;18.216;2023-12-20T04:26:19;12.13;;;2.70;;
12681;SDS011;6405;59.208;18.216;2023-12-20T04:28:45;10.47;;;2.90;;
12681;SDS011;6405;59.208;18.216;2023-12-20T04:31:10;16.60;;;2.70;;
12681;SDS011;6405;59.208;18.216;2023-12-20T04:33:36;7.90;;;2.70;;
12681;SDS011;6405;59.208;18.216;2023-12-20T04:36:02;12.53;;;2.37;;
12681;SDS011;6405;59.208;18.216;2023-12-20T04:38:28;10.27;;;2.83;;
12681;SDS011;6405;59.208;18.216;2023-12-20T04:40:54;9.30;;;3.23;;
12681;SDS011;6405;59.208;18.216;2023-12-20T04:43:19;13.03;;;2.77;;
12681;SDS011;6405;59.208;18.216;2023-12-20T04:45:45;12.83;;;2.80;;
12681;SDS011;6405;59.208;18.216;2023-12-20T04:48:10;10.87;;;2.20;;
12681;SDS011;6405;59.208;18.216;2023-12-20T04:50:37;12.70;;;3.13;;
12681;SDS011;6405;59.208;18.216;2023-12-20T04:53:02;8.00;;;2.57;;
12681;SDS011;6405;59.208;18.216;2023-12-20T04:55:28;11.47;;;3.17;;
12681;SDS011;6405;59.208;18.216;2023-12-20T04:57:54;9.63;;;2.80;;
12681;SDS011;6405;59.208;18.216;2023-12-20T05:00:20;12.30;;;3.30;;
12681;SDS011;6405;59.208;18.216;2023-12-20T05:02:45;10.07;;;3.27;;
12681;SDS011;6405;59.208;18.216;2023-12-20T05:05:11;8.40;;;2.40;;
12681;SDS011;6405;59.208;18.216;2023-12-20T05:07:37;10.13;;;3.27;;
12681;SDS011;6405;59.208;18.216;2023-12-20T05:10:03;14.07;;;3.80;;
12681;SDS011;6405;59.208;18.216;2023-12-20T05:12:33;7.67;;;2.37;;
12681;SDS011;6405;59.208;18.216;2023-12-20T05:14:59;10.90;;;3.03;;
12681;SDS011;6405;59.208;18.216;2023-12-20T05:17:25;12.07;;;3.13;;
12681;SDS011;6405;59.208;18.216;2023-12-20T05:19:51;8.63;;;2.90;;
12681;SDS011;6405;59.208;18.216;2023-12-20T05:22:17;12.60;;;3.40;;
12681;SDS011;6405;59.208;18.216;2023-12-20T05:24:44;14.17;;;3.30;;
12681;SDS011;6405;59.208;18.216;2023-12-20T05:27:10;11.90;;;3.37;;
12681;SDS011;6405;59.208;18.216;2023-12-20T05:29:36;12.30;;;3.10;;
12681;SDS011;6405;59.208;18.216;2023-12-20T05:32:02;10.13;;;3.20;;
12681;SDS011;6405;59.208;18.216;2023-12-20T05:34:30;7.07;;;3.00;;
12681;SDS011;6405;59.208;18.216;2023-12-20T05:36:57;8.67;;;2.80;;
12681;SDS011;6405;59.208;18.216;2023-12-20T05:39:23;6.67;;;2.50;;
12681;SDS011;6405;59.208;18.216;2023-12-20T05:41:49;3.67;;;2.63;;
12681;SDS011;6405;59.208;18.216;2023-12-20T05:44:14;11.47;;;2.57;;
12681;SDS011;6405;59.208;18.216;2023-12-20T05:46:40;12.43;;;3.50;;
12681;SDS011;6405;59.208;18.216;2023-12-20T05:49:06;14.37;;;2.87;;
12681;SDS011;6405;59.208;18.216;2023-12-20T05:51:32;12.10;;;3.00;;
12681;SDS011;6405;59.208;18.216;2023-12-20T05:53:58;7.60;;;3.70;;
12681;SDS011;6405;59.208;18.216;2023-12-20T05:56:24;9.50;;;3.70;;
12681;SDS011;6405;59.208;18.216;2023-12-20T05:58:49;10.70;;;4.33;;
12681;SDS011;6405;59.208;18.216;2023-12-20T06:01:16;10.87;;;3.40;;
12681;SDS011;6405;59.208;18.216;2023-12-20T06:03:44;8.37;;;3.53;;
12681;SDS011;6405;59.208;18.216;2023-12-20T06:06:11;9.80;;;3.60;;
12681;SDS011;6405;59.208;18.216;2023-12-20T06:08:38;15.67;;;4.00;;
12681;SDS011;6405;59.208;18.216;2023-12-20T06:11:04;11.67;;;4.00;;
12681;SDS011;6405;59.208;18.216;2023-12-20T06:13:30;6.43;;;3.00;;
12681;SDS011;6405;59.208;18.216;2023-12-20T06:15:56;9.30;;;3.27;;
12681;SDS011;6405;59.208;18.216;2023-12-20T06:18:22;13.03;;;4.10;;
12681;SDS011;6405;59.208;18.216;2023-12-20T06:20:49;17.33;;;3.90;;
12681;SDS011;6405;59.208;18.216;2023-12-20T06:23:15;10.67;;;4.23;;
12681;SDS011;6405;59.208;18.216;2023-12-20T06:25:40;11.87;;;3.97;;
12681;SDS011;6405;59.208;18.216;2023-12-20T06:28:06;13.03;;;3.93;;
12681;SDS011;6405;59.208;18.216;2023-12-20T06:30:32;14.93;;;3.90;;
12681;SDS011;6405;59.208;18.216;2023-12-20T06:32:59;11.30;;;4.13;;
12681;SDS011;6405;59.208;18.216;2023-12-20T06:35:25;14.13;;;4.00;;
12681;SDS011;6405;59.208;18.216;2023-12-20T06:37:50;18.43;;;5.27;;
12681;SDS011;6405;59.208;18.216;2023-12-20T06:40:17;16.37;;;4.73;;
12681;SDS011;6405;59.208;18.216;2023-12-20T06:42:43;18.53;;;4.83;;
12681;SDS011;6405;59.208;18.216;2023-12-20T06:45:09;12.43;;;5.10;;
12681;SDS011;6405;59.208;18.216;2023-12-20T06:47:35;16.53;;;4.40;;
12681;SDS011;6405;59.208;18.216;2023-12-20T06:50:01;26.20;;;4.87;;
12681;SDS011;6405;59.208;18.216;2023-12-20T06:52:26;22.67;;;4.87;;
12681;SDS011;6405;59.208;18.216;2023-12-20T06:54:52;21.43;;;4.67;;
12681;SDS011;6405;59.208;18.216;2023-12-20T06:57:18;12.17;;;3.73;;
12681;SDS011;6405;59.208;18.216;2023-12-20T06:59:45;16.37;;;4.27;;
12681;SDS011;6405;59.208;18.216;2023-12-20T07:02:10;14.60;;;4.33;;
12681;SDS011;6405;59.208;18.216;2023-12-20T07:04:40;9.57;;;4.43;;
12681;SDS011;6405;59.208;18.216;2023-12-20T07:07:06;21.50;;;4.53;;
12681;SDS011;6405;59.208;18.216;2023-12-20T07:09:32;13.77;;;4.87;;
12681;SDS011;6405;59.208;18.216;2023-12-20T07:11:58;15.73;;;5.67;;
12681;SDS011;6405;59.208;18.216;2023-12-20T07:14:24;10.53;;;4.47;;
12681;SDS011;6405;59.208;18.216;2023-12-20T07:16:50;19.40;;;5.67;;
12681;SDS011;6405;59.208;18.216;2023-12-20T07:19:16;14.03;;;4.47;;
12681;SDS011;6405;59.208;18.216;2023-12-20T07:21:41;13.80;;;4.90;;
12681;SDS011;6405;59.208;18.216;2023-12-20T07:24:08;13.00;;;5.20;;
12681;SDS011;6405;59.208;18.216;2023-12-20T07:26:34;23.07;;;4.93;;
12681;SDS011;6405;59.208;18.216;2023-12-20T07:29:00;7.63;;;3.53;;
12681;SDS011;6405;59.208;18.216;2023-12-20T07:31:26;10.47;;;4.23;;
12681;SDS011;6405;59.208;18.216;2023-12-20T07:33:51;10.57;;;4.13;;
12681;SDS011;6405;59.208;18.216;2023-12-20T07:36:19;15.63;;;4.23;;
12681;SDS011;6405;59.208;18.216;2023-12-20T07:38:44;8.73;;;3.73;;
12681;SDS011;6405;59.208;18.216;2023-12-20T07:41:10;9.27;;;3.90;;
12681;SDS011;6405;59.208;18.216;2023-12-20T07:43:36;12.53;;;4.33;;
12681;SDS011;6405;59.208;18.216;2023-12-20T07:46:08;16.00;;;5.00;;
12681;SDS011;6405;59.208;18.216;2023-12-20T07:48:34;13.43;;;3.80;;
12681;SDS011;6405;59.208;18.216;2023-12-20T07:51:01;10.33;;;4.30;;
12681;SDS011;6405;59.208;18.216;2023-12-20T07:53:27;8.53;;;4.20;;
12681;SDS011;6405;59.208;18.216;2023-12-20T07:55:52;9.93;;;3.87;;
12681;SDS011;6405;59.208;18.216;2023-12-20T07:58:18;7.77;;;3.07;;
12681;SDS011;6405;59.208;18.216;2023-12-20T08:00:45;9.97;;;3.17;;
12681;SDS011;6405;59.208;18.216;2023-12-20T08:03:11;6.67;;;2.77;;
12681;SDS011;6405;59.208;18.216;2023-12-20T08:05:36;9.37;;;3.63;;
12681;SDS011;6405;59.208;18.216;2023-12-20T08:08:05;6.20;;;2.87;;
12681;SDS011;6405;59.208;18.216;2023-12-20T08:10:31;11.83;;;4.07;;
12681;SDS011;6405;59.208;18.216;2023-12-20T08:12:57;7.73;;;2.93;;
12681;SDS011;6405;59.208;18.216;2023-12-20T08:15:22;6.30;;;2.67;;
12681;SDS011;6405;59.208;18.216;2023-12-20T08:17:48;6.27;;;2.47;;
12681;SDS011;6405;59.208;18.216;2023-12-20T08:20:16;8.07;;;2.70;;
12681;SDS011;6405;59.208;18.216;2023-12-20T08:22:42;9.90;;;3.00;;
12681;SDS011;6405;59.208;18.216;2023-12-20T08:25:08;9.77;;;2.90;;
12681;SDS011;6405;59.208;18.216;2023-12-20T08:27:34;9.10;;;2.60;;
12681;SDS011;6405;59.208;18.216;2023-12-20T08:30:04;9.33;;;2.50;;
12681;SDS011;6405;59.208;18.216;2023-12-20T08:32:31;13.13;;;3.13;;
12681;SDS011;6405;59.208;18.216;2023-12-20T08:34:57;17.93;;;2.73;;
12681;SDS011;6405;59.208;18.216;2023-12-20T08:37:23;13.20;;;2.97;;
12681;SDS011;6405;59.208;18.216;2023-12-20T08:39:49;11.20;;;3.63;;
12681;SDS011;6405;59.208;18.216;2023-12-20T08:42:14;9.73;;;3.30;;
12681;SDS011;6405;59.208;18.216;2023-12-20T08:44:40;12.43;;;3.30;;
12681;SDS011;6405;59.208;18.216;2023-12-20T08:47:06;11.73;;;3.43;;
12681;SDS011;6405;59.208;18.216;2023-12-20T08:49:32;5.90;;;2.87;;
12681;SDS011;6405;59.208;18.216;2023-12-20T08:51:58;11.60;;;3.77;;
12681;SDS011;6405;59.208;18.216;2023-12-20T08:54:24;11.10;;;3.90;;
12681;SDS011;6405;59.208;18.216;2023-12-20T08:56:49;10.23;;;3.47;;
12681;SDS011;6405;59.208;18.216;2023-12-20T08:59:15;9.63;;;4.30;;
12681;SDS011;6405;59.208;18.216;2023-12-20T09:01:41;9.80;;;3.07;;
12681;SDS011;6405;59.208;18.216;2023-12-20T09:04:07;10.43;;;3.33;;
12681;SDS011;6405;59.208;18.216;2023-12-20T09:06:32;8.10;;;2.83;;
12681;SDS011;6405;59.208;18.216;2023-12-20T09:08:58;6.60;;;2.93;;
12681;SDS011;6405;59.208;18.216;2023-12-20T09:11:24;10.70;;;2.80;;
12681;SDS011;6405;59.208;18.216;2023-12-20T09:13:49;8.47;;;2.47;;
12681;SDS011;6405;59.208;18.216;2023-12-20T09:16:15;8.80;;;2.40;;
12681;SDS011;6405;59.208;18.216;2023-12-20T09:18:42;7.43;;;2.20;;
12681;SDS011;6405;59.208;18.216;2023-12-20T09:21:07;12.00;;;2.50;;
12681;SDS011;6405;59.208;18.216;2023-12-20T09:23:33;5.17;;;2.60;;
12681;SDS011;6405;59.208;18.216;2023-12-20T09:25:59;6.57;;;2.03;;
12681;SDS011;6405;59.208;18.216;2023-12-20T09:28:24;8.80;;;2.80;;
12681;SDS011;6405;59.208;18.216;2023-12-20T09:30:50;12.30;;;2.70;;
12681;SDS011;6405;59.208;18.216;2023-12-20T09:33:16;6.13;;;2.17;;
12681;SDS011;6405;59.208;18.216;2023-12-20T09:35:42;5.20;;;2.00;;
12681;SDS011;6405;59.208;18.216;2023-12-20T09:38:08;5.30;;;1.83;;
12681;SDS011;6405;59.208;18.216;2023-12-20T09:40:33;6.00;;;2.30;;
12681;SDS011;6405;59.208;18.216;2023-12-20T09:43:04;3.83;;;2.00;;
12681;SDS011;6405;59.208;18.216;2023-12-20T09:45:39;4.70;;;1.90;;
12681;SDS011;6405;59.208;18.216;2023-12-20T09:48:05;6.83;;;2.30;;
12681;SDS011;6405;59.208;18.216;2023-12-20T09:50:34;4.67;;;2.60;;
12681;SDS011;6405;59.208;18.216;2023-12-20T09:53:01;12.40;;;2.37;;
12681;SDS011;6405;59.208;18.216;2023-12-20T09:55:29;5.70;;;1.97;;
12681;SDS011;6405;59.208;18.216;2023-12-20T09:57:56;11.83;;;2.10;;
12681;SDS011;6405;59.208;18.216;2023-12-20T10:00:22;7.33;;;1.93;;
12681;SDS011;6405;59.208;18.216;2023-12-20T10:03:06;4.53;;;1.77;;
12681;SDS011;6405;59.208;18.216;2023-12-20T10:05:33;4.10;;;1.83;;
12681;SDS011;6405;59.208;18.216;2023-12-20T10:07:59;6.00;;;2.57;;
12681;SDS011;6405;59.208;18.216;2023-12-20T10:10:26;6.00;;;2.07;;
12681;SDS011;6405;59.208;18.216;2023-12-20T10:13:05;5.13;;;2.50;;
12681;SDS011;6405;59.208;18.216;2023-12-20T10:15:35;6.93;;;2.00;;
12681;SDS011;6405;59.208;18.216;2023-12-20T10:18:02;4.93;;;2.23;;
12681;SDS011;6405;59.208;18.216;2023-12-20T10:20:28;9.03;;;2.27;;
12681;SDS011;6405;59.208;18.216;2023-12-20T10:22:55;10.10;;;2.47;;
12681;SDS011;6405;59.208;18.216;2023-12-20T10:25:22;4.37;;;2.13;;
12681;SDS011;6405;59.208;18.216;2023-12-20T10:27:49;7.20;;;2.43;;
12681;SDS011;6405;59.208;18.216;2023-12-20T10:30:15;8.30;;;2.23;;
12681;SDS011;6405;59.208;18.216;2023-12-20T10:32:41;7.83;;;2.73;;
12681;SDS011;6405;59.208;18.216;2023-12-20T10:35:08;9.20;;;1.90;;
12681;SDS011;6405;59.208;18.216;2023-12-20T10:37:37;9.97;;;2.33;;
12681;SDS011;6405;59.208;18.216;2023-12-20T10:40:03;6.20;;;1.73;;
12681;SDS011;6405;59.208;18.216;2023-12-20T10:42:31;6.03;;;2.27;;
12681;SDS011;6405;59.208;18.216;2023-12-20T10:44:59;9.93;;;2.37;;
12681;SDS011;6405;59.208;18.216;2023-12-20T10:47:25;6.47;;;1.63;;
12681;SDS011;6405;59.208;18.216;2023-12-20T10:49:54;7.33;;;1.80;;
12681;SDS011;6405;59.208;18.216;2023-12-20T10:52:21;3.90;;;1.50;;
12681;SDS011;6405;59.208;18.216;2023-12-20T10:54:48;13.13;;;1.83;;
12681;SDS011;6405;59.208;18.216;2023-12-20T10:57:14;7.40;;;1.70;;
12681;SDS011;6405;59.208;18.216;2023-12-20T10:59:43;5.43;;;1.40;;
12681;SDS011;6405;59.208;18.216;2023-12-20T11:02:14;10.70;;;1.37;;
12681;SDS011;6405;59.208;18.216;2023-12-20T11:15:14;8.00;;;1.50;;
12681;SDS011;6405;59.208;18.216;2023-12-20T11:17:40;3.67;;;1.53;;
12681;SDS011;6405;59.208;18.216;2023-12-20T11:20:09;4.17;;;1.23;;
12681;SDS011;6405;59.208;18.216;2023-12-20T11:22:36;10.10;;;1.63;;
12681;SDS011;6405;59.208;18.216;2023-12-20T11:27:34;4.43;;;1.20;;
12681;SDS011;6405;59.208;18.216;2023-12-20T11:30:02;6.33;;;1.50;;
12681;SDS011;6405;59.208;18.216;2023-12-20T11:32:31;5.33;;;1.77;;
12681;SDS011;6405;59.208;18.216;2023-12-20T11:35:00;5.57;;;1.10;;
12681;SDS011;6405;59.208;18.216;2023-12-20T11:37:38;5.67;;;1.47;;
12681;SDS011;6405;59.208;18.216;2023-12-20T11:40:08;1.70;;;1.00;;
12681;SDS011;6405;59.208;18.216;2023-12-20T11:42:46;5.30;;;0.90;;
12681;SDS011;6405;59.208;18.216;2023-12-20T11:45:15;3.80;;;0.80;;
12681;SDS011;6405;59.208;18.216;2023-12-20T11:47:45;1.40;;;0.67;;
12681;SDS011;6405;59.208;18.216;2023-12-20T11:50:12;2.60;;;0.77;;
12681;SDS011;6405;59.208;18.216;2023-12-20T11:52:38;1.97;;;0.57;;
12681;SDS011;6405;59.208;18.216;2023-12-20T11:55:04;1.17;;;0.53;;
12681;SDS011;6405;59.208;18.216;2023-12-20T11:57:30;4.37;;;0.70;;
12681;SDS011;6405;59.208;18.216;2023-12-20T11:59:56;0.73;;;0.60;;
12681;SDS011;6405;59.208;18.216;2023-12-20T12:02:22;3.73;;;0.43;;
12681;SDS011;6405;59.208;18.216;2023-12-20T12:04:49;2.60;;;0.70;;
12681;SDS011;6405;59.208;18.216;2023-12-20T12:07:18;0.63;;;0.40;;
12681;SDS011;6405;59.208;18.216;2023-12-20T12:09:44;3.53;;;0.80;;
12681;SDS011;6405;59.208;18.216;2023-12-20T12:12:10;0.57;;;0.50;;
12681;SDS011;6405;59.208;18.216;2023-12-20T12:14:37;0.80;;;0.40;;
12681;SDS011;6405;59.208;18.216;2023-12-20T12:17:03;2.27;;;0.50;;
12681;SDS011;6405;59.208;18.216;2023-12-20T12:19:30;1.83;;;0.67;;
12681;SDS011;6405;59.208;18.216;2023-12-20T12:22:07;1.50;;;0.50;;
12681;SDS011;6405;59.208;18.216;2023-12-20T12:24:41;1.50;;;0.50;;
12681;SDS011;6405;59.208;18.216;2023-12-20T12:27:10;1.27;;;0.50;;
12681;SDS011;6405;59.208;18.216;2023-12-20T12:29:37;2.13;;;0.70;;
12681;SDS011;6405;59.208;18.216;2023-12-20T12:32:06;1.90;;;0.60;;
12681;SDS011;6405;59.208;18.216;2023-12-20T12:34:33;2.60;;;0.73;;
12681;SDS011;6405;59.208;18.216;2023-12-20T12:37:03;1.40;;;0.50;;
12681;SDS011;6405;59.208;18.216;2023-12-20T12:39:29;0.73;;;0.40;;
12681;SDS011;6405;59.208;18.216;2023-12-20T12:41:55;3.27;;;0.67;;
12681;SDS011;6405;59.208;18.216;2023-12-20T12:44:22;1.40;;;0.47;;
12681;SDS011;6405;59.208;18.216;2023-12-20T12:46:51;3.17;;;0.67;;
12681;SDS011;6405;59.208;18.216;2023-12-20T12:49:19;2.40;;;0.70;;
12681;SDS011;6405;59.208;18.216;2023-12-20T12:51:46;1.63;;;0.80;;
12681;SDS011;6405;59.208;18.216;2023-12-20T12:54:12;2.57;;;0.60;;
12681;SDS011;6405;59.208;18.216;2023-12-20T12:56:38;1.90;;;0.53;;
12681;SDS011;6405;59.208;18.216;2023-12-20T12:59:04;1.03;;;0.33;;
12681;SDS011;6405;59.208;18.216;2023-12-20T13:01:30;1.53;;;0.60;;
12681;SDS011;6405;59.208;18.216;2023-12-20T13:03:56;1.37;;;0.40;;
12681;SDS011;6405;59.208;18.216;2023-12-20T13:06:22;2.60;;;0.80;;
12681;SDS011;6405;59.208;18.216;2023-12-20T13:08:48;1.50;;;0.43;;
12681;SDS011;6405;59.208;18.216;2023-12-20T13:11:14;4.03;;;0.50;;
12681;SDS011;6405;59.208;18.216;2023-12-20T13:13:40;0.57;;;0.40;;
12681;SDS011;6405;59.208;18.216;2023-12-20T13:16:06;2.13;;;0.70;;
12681;SDS011;6405;59.208;18.216;2023-12-20T13:18:33;2.30;;;0.53;;
12681;SDS011;6405;59.208;18.216;2023-12-20T13:20:58;2.93;;;0.80;;
12681;SDS011;6405;59.208;18.216;2023-12-20T13:23:24;3.03;;;0.60;;
12681;SDS011;6405;59.208;18.216;2023-12-20T13:25:50;5.27;;;0.93;;
12681;SDS011;6405;59.208;18.216;2023-12-20T13:28:16;4.37;;;1.40;;
12681;SDS011;6405;59.208;18.216;2023-12-20T13:30:42;5.13;;;1.50;;
12681;SDS011;6405;59.208;18.216;2023-12-20T13:33:08;4.30;;;1.17;;
12681;SDS011;6405;59.208;18.216;2023-12-20T13:35:34;3.13;;;1.20;;
12681;SDS011;6405;59.208;18.216;2023-12-20T13:38:00;3.13;;;0.97;;
12681;SDS011;6405;59.208;18.216;2023-12-20T13:40:26;6.57;;;1.00;;
12681;SDS011;6405;59.208;18.216;2023-12-20T13:42:51;3.93;;;1.20;;
12681;SDS011;6405;59.208;18.216;2023-12-20T13:45:17;2.10;;;0.83;;
12681;SDS011;6405;59.208;18.216;2023-12-20T13:47:43;3.20;;;0.90;;
12681;SDS011;6405;59.208;18.216;2023-12-20T13:50:09;1.90;;;0.90;;
12681;SDS011;6405;59.208;18.216;2023-12-20T13:52:35;4.20;;;1.00;;
12681;SDS011;6405;59.208;18.216;2023-12-20T13:55:01;4.83;;;1.03;;
12681;SDS011;6405;59.208;18.216;2023-12-20T13:57:27;6.90;;;1.47;;
12681;SDS011;6405;59.208;18.216;2023-12-20T13:59:54;4.07;;;1.20;;
12681;SDS011;6405;59.208;18.216;2023-12-20T14:02:22;6.97;;;1.70;;
12681;SDS011;6405;59.208;18.216;2023-12-20T14:04:48;5.00;;;1.73;;
12681;SDS011;6405;59.208;18.216;2023-12-20T14:07:14;4.90;;;1.63;;
12681;SDS011;6405;59.208;18.216;2023-12-20T14:09:40;3.13;;;1.20;;
12681;SDS011;6405;59.208;18.216;2023-12-20T14:12:10;5.47;;;1.80;;
12681;SDS011;6405;59.208;18.216;2023-12-20T14:14:36;3.93;;;1.27;;
12681;SDS011;6405;59.208;18.216;2023-12-20T14:17:02;5.03;;;1.70;;
12681;SDS011;6405;59.208;18.216;2023-12-20T14:19:29;5.43;;;1.80;;
12681;SDS011;6405;59.208;18.216;2023-12-20T14:21:54;5.70;;;2.03;;
12681;SDS011;6405;59.208;18.216;2023-12-20T14:24:20;3.87;;;1.87;;
12681;SDS011;6405;59.208;18.216;2023-12-20T14:26:46;6.30;;;1.97;;
12681;SDS011;6405;59.208;18.216;2023-12-20T14:29:12;7.17;;;2.30;;
12681;SDS011;6405;59.208;18.216;2023-12-20T14:31:37;7.37;;;2.20;;
12681;SDS011;6405;59.208;18.216;2023-12-20T14:34:05;5.57;;;2.30;;
12681;SDS011;6405;59.208;18.216;2023-12-20T14:36:31;2.67;;;1.80;;
12681;SDS011;6405;59.208;18.216;2023-12-20T14:38:57;4.80;;;2.27;;
12681;SDS011;6405;59.208;18.216;2023-12-20T14:41:23;5.37;;;2.53;;
12681;SDS011;6405;59.208;18.216;2023-12-20T14:43:50;6.90;;;2.87;;
12681;SDS011;6405;59.208;18.216;2023-12-20T14:46:17;8.77;;;3.10;;
12681;SDS011;6405;59.208;18.216;2023-12-20T14:48:43;9.47;;;2.60;;